sensor_id;sensor_type;location;lat;lon;timestamp;temperature;humidity
5796;DHT22;2924;51.458;7.046;2023-09-19T00:00:38;14.40;99.90
5796;DHT22;2924;51.458;7.046;2023-09-19T00:03:03;14.40;99.90
5796;DHT22;2924;51.458;7.046;2023-09-19T00:05:35;14.30;99.90
5796;DHT22;2924;51.458;7.046;2023-09-19T00:08:02;14.40;99.90
5796;DHT22;2924;51.458;7.046;2023-09-19T00:10:32;14.30;99.90
5796;DHT22;2924;51.458;7.046;2023-09-19T00:13:01;14.40;99.90
5796;DHT22;2924;51.458;7.046;2023-09-19T00:15:29;14.30;99.90
5796;DHT22;2924;51.458;7.046;2023-09-19T00:17:55;14.30;99.90
5796;DHT22;2924;51.458;7.046;2023-09-19T00:20:21;14.30;99.90
5796;DHT22;2924;51.458;7.046;2023-09-19T00:22:49;14.20;99.90
5796;DHT22;2924;51.458;7.046;2023-09-19T00:25:19;14.20;99.90
5796;DHT22;2924;51.458;7.046;2023-09-19T00:27:45;14.20;99.90
5796;DHT22;2924;51.458;7.046;2023-09-19T00:30:13;14.10;99.90
5796;DHT22;2924;51.458;7.046;2023-09-19T00:32:46;14.20;99.90
5796;DHT22;2924;51.458;7.046;2023-09-19T00:35:15;14.20;99.90
5796;DHT22;2924;51.458;7.046;2023-09-19T00:37:41;14.20;99.90
5796;DHT22;2924;51.458;7.046;2023-09-19T00:40:08;14.10;99.90
5796;DHT22;2924;51.458;7.046;2023-09-19T00:42:38;14.00;99.90
5796;DHT22;2924;51.458;7.046;2023-09-19T00:45:05;14.00;99.90
5796;DHT22;2924;51.458;7.046;2023-09-19T00:47:31;14.00;99.90
5796;DHT22;2924;51.458;7.046;2023-09-19T00:49:57;14.00;99.90
5796;DHT22;2924;51.458;7.046;2023-09-19T00:52:23;14.00;99.90
5796;DHT22;2924;51.458;7.046;2023-09-19T00:54:49;14.00;99.90
5796;DHT22;2924;51.458;7.046;2023-09-19T00:57:15;14.00;99.90
5796;DHT22;2924;51.458;7.046;2023-09-19T00:59:42;14.00;99.90
5796;DHT22;2924;51.458;7.046;2023-09-19T01:02:08;14.00;99.90
5796;DHT22;2924;51.458;7.046;2023-09-19T01:04:34;14.00;99.90
5796;DHT22;2924;51.458;7.046;2023-09-19T01:06:59;14.00;99.90
5796;DHT22;2924;51.458;7.046;2023-09-19T01:09:25;14.00;99.90
5796;DHT22;2924;51.458;7.046;2023-09-19T01:11:53;13.90;99.90
5796;DHT22;2924;51.458;7.046;2023-09-19T01:17:29;13.80;99.90
5796;DHT22;2924;51.458;7.046;2023-09-19T01:26:05;13.80;99.90
5796;DHT22;2924;51.458;7.046;2023-09-19T01:29:06;13.90;99.90
5796;DHT22;2924;51.458;7.046;2023-09-19T01:31:37;13.80;99.90
5796;DHT22;2924;51.458;7.046;2023-09-19T01:34:04;13.80;99.90
5796;DHT22;2924;51.458;7.046;2023-09-19T01:36:32;13.80;99.90
5796;DHT22;2924;51.458;7.046;2023-09-19T01:39:05;13.80;99.90
5796;DHT22;2924;51.458;7.046;2023-09-19T01:41:59;13.80;99.90
5796;DHT22;2924;51.458;7.046;2023-09-19T01:44:40;13.80;99.90
5796;DHT22;2924;51.458;7.046;2023-09-19T01:47:26;13.80;99.90
5796;DHT22;2924;51.458;7.046;2023-09-19T01:52:47;13.70;99.90
5796;DHT22;2924;51.458;7.046;2023-09-19T01:55:15;13.70;99.90
5796;DHT22;2924;51.458;7.046;2023-09-19T01:58:14;13.60;99.90
5796;DHT22;2924;51.458;7.046;2023-09-19T02:00:41;13.60;99.90
5796;DHT22;2924;51.458;7.046;2023-09-19T02:03:10;13.60;99.90
5796;DHT22;2924;51.458;7.046;2023-09-19T02:05:37;13.60;99.90
5796;DHT22;2924;51.458;7.046;2023-09-19T02:08:04;13.60;99.90
5796;DHT22;2924;51.458;7.046;2023-09-19T02:10:30;13.60;99.90
5796;DHT22;2924;51.458;7.046;2023-09-19T02:12:56;13.50;99.90
5796;DHT22;2924;51.458;7.046;2023-09-19T02:15:22;13.50;99.90
5796;DHT22;2924;51.458;7.046;2023-09-19T02:17:47;13.50;99.90
5796;DHT22;2924;51.458;7.046;2023-09-19T02:20:13;13.50;99.90
5796;DHT22;2924;51.458;7.046;2023-09-19T02:22:43;13.50;99.90
5796;DHT22;2924;51.458;7.046;2023-09-19T02:25:10;13.50;99.90
5796;DHT22;2924;51.458;7.046;2023-09-19T02:27:36;13.40;99.90
5796;DHT22;2924;51.458;7.046;2023-09-19T02:30:03;13.40;99.90
5796;DHT22;2924;51.458;7.046;2023-09-19T02:32:28;13.40;99.90
5796;DHT22;2924;51.458;7.046;2023-09-19T02:34:56;13.40;99.90
5796;DHT22;2924;51.458;7.046;2023-09-19T02:37:21;13.40;99.90
5796;DHT22;2924;51.458;7.046;2023-09-19T02:39:47;13.40;99.90
5796;DHT22;2924;51.458;7.046;2023-09-19T02:42:12;13.30;99.90
5796;DHT22;2924;51.458;7.046;2023-09-19T02:44:38;13.30;99.90
5796;DHT22;2924;51.458;7.046;2023-09-19T02:47:05;13.30;99.90
5796;DHT22;2924;51.458;7.046;2023-09-19T02:49:30;13.30;99.90
5796;DHT22;2924;51.458;7.046;2023-09-19T02:51:56;13.30;99.90
5796;DHT22;2924;51.458;7.046;2023-09-19T02:54:24;13.30;99.90
5796;DHT22;2924;51.458;7.046;2023-09-19T02:56:49;13.30;99.90
5796;DHT22;2924;51.458;7.046;2023-09-19T02:59:15;13.30;99.90
5796;DHT22;2924;51.458;7.046;2023-09-19T03:01:43;13.30;99.90
5796;DHT22;2924;51.458;7.046;2023-09-19T03:04:09;13.40;99.90
5796;DHT22;2924;51.458;7.046;2023-09-19T03:06:36;13.40;99.90
5796;DHT22;2924;51.458;7.046;2023-09-19T03:09:03;13.30;99.90
5796;DHT22;2924;51.458;7.046;2023-09-19T03:11:31;13.30;99.90
5796;DHT22;2924;51.458;7.046;2023-09-19T03:13:57;13.40;99.90
5796;DHT22;2924;51.458;7.046;2023-09-19T03:16:23;13.40;99.90
5796;DHT22;2924;51.458;7.046;2023-09-19T03:18:50;13.30;99.90
5796;DHT22;2924;51.458;7.046;2023-09-19T03:21:16;13.40;99.90
5796;DHT22;2924;51.458;7.046;2023-09-19T03:23:44;13.40;99.90
5796;DHT22;2924;51.458;7.046;2023-09-19T03:26:11;13.30;99.90
5796;DHT22;2924;51.458;7.046;2023-09-19T03:28:38;13.30;99.90
5796;DHT22;2924;51.458;7.046;2023-09-19T03:31:05;13.40;99.90
5796;DHT22;2924;51.458;7.046;2023-09-19T03:33:31;13.40;99.90
5796;DHT22;2924;51.458;7.046;2023-09-19T03:35:58;13.30;99.90
5796;DHT22;2924;51.458;7.046;2023-09-19T03:38:27;13.30;99.90
5796;DHT22;2924;51.458;7.046;2023-09-19T03:40:56;13.30;99.90
5796;DHT22;2924;51.458;7.046;2023-09-19T03:43:21;13.30;99.90
5796;DHT22;2924;51.458;7.046;2023-09-19T03:45:47;13.30;99.90
5796;DHT22;2924;51.458;7.046;2023-09-19T03:48:14;13.30;99.90
5796;DHT22;2924;51.458;7.046;2023-09-19T03:50:40;13.20;99.90
5796;DHT22;2924;51.458;7.046;2023-09-19T03:53:05;13.30;99.90
5796;DHT22;2924;51.458;7.046;2023-09-19T03:55:32;13.20;99.90
5796;DHT22;2924;51.458;7.046;2023-09-19T03:58:01;13.30;99.90
5796;DHT22;2924;51.458;7.046;2023-09-19T04:00:26;13.30;99.90
5796;DHT22;2924;51.458;7.046;2023-09-19T04:02:52;13.20;99.90
5796;DHT22;2924;51.458;7.046;2023-09-19T04:05:18;13.20;99.90
5796;DHT22;2924;51.458;7.046;2023-09-19T04:07:44;13.20;99.90
5796;DHT22;2924;51.458;7.046;2023-09-19T04:10:10;13.20;99.90
5796;DHT22;2924;51.458;7.046;2023-09-19T04:12:40;13.20;99.90
5796;DHT22;2924;51.458;7.046;2023-09-19T04:15:06;13.30;99.90
5796;DHT22;2924;51.458;7.046;2023-09-19T04:17:32;13.20;99.90
5796;DHT22;2924;51.458;7.046;2023-09-19T04:20:00;13.20;99.90
5796;DHT22;2924;51.458;7.046;2023-09-19T04:22:26;13.20;99.90
5796;DHT22;2924;51.458;7.046;2023-09-19T04:24:51;13.20;99.90
5796;DHT22;2924;51.458;7.046;2023-09-19T04:27:17;13.20;99.90
5796;DHT22;2924;51.458;7.046;2023-09-19T04:29:44;13.20;99.90
5796;DHT22;2924;51.458;7.046;2023-09-19T04:32:10;13.10;99.90
5796;DHT22;2924;51.458;7.046;2023-09-19T04:34:36;13.20;99.90
5796;DHT22;2924;51.458;7.046;2023-09-19T04:37:03;13.20;99.90
5796;DHT22;2924;51.458;7.046;2023-09-19T04:39:29;13.20;99.90
5796;DHT22;2924;51.458;7.046;2023-09-19T04:41:55;13.10;99.90
5796;DHT22;2924;51.458;7.046;2023-09-19T04:44:20;13.10;99.90
5796;DHT22;2924;51.458;7.046;2023-09-19T04:46:46;13.10;99.90
5796;DHT22;2924;51.458;7.046;2023-09-19T04:49:12;13.20;99.90
5796;DHT22;2924;51.458;7.046;2023-09-19T04:51:39;13.20;99.90
5796;DHT22;2924;51.458;7.046;2023-09-19T04:54:05;13.20;99.90
5796;DHT22;2924;51.458;7.046;2023-09-19T04:56:31;13.20;99.90
5796;DHT22;2924;51.458;7.046;2023-09-19T04:58:57;13.20;99.90
5796;DHT22;2924;51.458;7.046;2023-09-19T05:01:27;13.20;99.90
5796;DHT22;2924;51.458;7.046;2023-09-19T05:03:52;13.20;99.90
5796;DHT22;2924;51.458;7.046;2023-09-19T05:06:21;13.20;99.90
5796;DHT22;2924;51.458;7.046;2023-09-19T05:08:50;13.20;99.90
5796;DHT22;2924;51.458;7.046;2023-09-19T05:11:21;13.20;99.90
5796;DHT22;2924;51.458;7.046;2023-09-19T05:13:49;13.20;99.90
5796;DHT22;2924;51.458;7.046;2023-09-19T05:16:18;13.20;99.90
5796;DHT22;2924;51.458;7.046;2023-09-19T05:18:44;13.20;99.90
5796;DHT22;2924;51.458;7.046;2023-09-19T05:21:09;13.30;99.90
5796;DHT22;2924;51.458;7.046;2023-09-19T05:23:35;13.30;99.90
5796;DHT22;2924;51.458;7.046;2023-09-19T05:26:00;13.20;99.90
5796;DHT22;2924;51.458;7.046;2023-09-19T05:28:27;13.30;99.90
5796;DHT22;2924;51.458;7.046;2023-09-19T05:30:53;13.30;99.90
5796;DHT22;2924;51.458;7.046;2023-09-19T05:33:19;13.30;99.90
5796;DHT22;2924;51.458;7.046;2023-09-19T05:35:45;13.40;99.90
5796;DHT22;2924;51.458;7.046;2023-09-19T05:38:13;13.40;99.90
5796;DHT22;2924;51.458;7.046;2023-09-19T05:40:39;13.40;99.90
5796;DHT22;2924;51.458;7.046;2023-09-19T05:43:08;13.50;99.90
5796;DHT22;2924;51.458;7.046;2023-09-19T05:45:34;13.50;99.90
5796;DHT22;2924;51.458;7.046;2023-09-19T05:48:11;13.50;99.90
5796;DHT22;2924;51.458;7.046;2023-09-19T05:50:38;13.60;99.90
5796;DHT22;2924;51.458;7.046;2023-09-19T05:53:04;13.60;99.90
5796;DHT22;2924;51.458;7.046;2023-09-19T05:55:30;13.70;99.90
5796;DHT22;2924;51.458;7.046;2023-09-19T05:57:56;13.80;99.90
5796;DHT22;2924;51.458;7.046;2023-09-19T06:00:23;13.90;99.90
5796;DHT22;2924;51.458;7.046;2023-09-19T06:02:56;13.90;99.90
5796;DHT22;2924;51.458;7.046;2023-09-19T06:05:23;13.90;99.90
5796;DHT22;2924;51.458;7.046;2023-09-19T06:07:48;14.00;99.90
5796;DHT22;2924;51.458;7.046;2023-09-19T06:10:16;14.00;99.90
5796;DHT22;2924;51.458;7.046;2023-09-19T06:12:43;14.10;99.90
5796;DHT22;2924;51.458;7.046;2023-09-19T06:15:15;14.10;99.90
5796;DHT22;2924;51.458;7.046;2023-09-19T06:17:43;14.10;99.90
5796;DHT22;2924;51.458;7.046;2023-09-19T06:20:08;14.20;99.90
5796;DHT22;2924;51.458;7.046;2023-09-19T06:22:43;14.20;99.90
5796;DHT22;2924;51.458;7.046;2023-09-19T06:25:13;14.30;99.90
5796;DHT22;2924;51.458;7.046;2023-09-19T06:27:49;14.30;99.90
5796;DHT22;2924;51.458;7.046;2023-09-19T06:30:17;14.30;99.90
5796;DHT22;2924;51.458;7.046;2023-09-19T06:32:43;14.40;99.90
5796;DHT22;2924;51.458;7.046;2023-09-19T06:35:10;14.40;99.90
5796;DHT22;2924;51.458;7.046;2023-09-19T06:37:37;14.40;99.90
5796;DHT22;2924;51.458;7.046;2023-09-19T06:40:11;14.50;99.90
5796;DHT22;2924;51.458;7.046;2023-09-19T06:42:44;14.50;99.90
5796;DHT22;2924;51.458;7.046;2023-09-19T06:45:14;14.60;99.90
5796;DHT22;2924;51.458;7.046;2023-09-19T06:47:46;14.60;99.90
5796;DHT22;2924;51.458;7.046;2023-09-19T06:50:19;14.70;99.90
5796;DHT22;2924;51.458;7.046;2023-09-19T06:52:48;14.70;99.90
5796;DHT22;2924;51.458;7.046;2023-09-19T06:55:15;14.70;99.90
5796;DHT22;2924;51.458;7.046;2023-09-19T06:57:44;14.80;99.90
5796;DHT22;2924;51.458;7.046;2023-09-19T07:00:11;14.80;99.90
5796;DHT22;2924;51.458;7.046;2023-09-19T07:03:03;14.90;99.90
5796;DHT22;2924;51.458;7.046;2023-09-19T07:05:32;15.00;99.90
5796;DHT22;2924;51.458;7.046;2023-09-19T07:08:02;15.00;99.90
5796;DHT22;2924;51.458;7.046;2023-09-19T07:10:28;15.00;99.90
5796;DHT22;2924;51.458;7.046;2023-09-19T07:13:01;15.10;99.90
5796;DHT22;2924;51.458;7.046;2023-09-19T07:15:29;15.20;99.90
5796;DHT22;2924;51.458;7.046;2023-09-19T07:17:56;15.20;99.90
5796;DHT22;2924;51.458;7.046;2023-09-19T07:20:23;15.40;99.90
5796;DHT22;2924;51.458;7.046;2023-09-19T07:22:51;15.50;99.90
5796;DHT22;2924;51.458;7.046;2023-09-19T07:25:17;15.60;99.90
5796;DHT22;2924;51.458;7.046;2023-09-19T07:27:42;15.60;99.90
5796;DHT22;2924;51.458;7.046;2023-09-19T07:30:09;15.60;99.90
5796;DHT22;2924;51.458;7.046;2023-09-19T07:32:35;15.50;99.90
5796;DHT22;2924;51.458;7.046;2023-09-19T07:35:04;15.60;99.90
5796;DHT22;2924;51.458;7.046;2023-09-19T07:37:33;15.70;99.90
5796;DHT22;2924;51.458;7.046;2023-09-19T07:40:02;15.80;99.90
5796;DHT22;2924;51.458;7.046;2023-09-19T07:42:35;15.80;99.90
5796;DHT22;2924;51.458;7.046;2023-09-19T07:45:02;15.90;99.90
5796;DHT22;2924;51.458;7.046;2023-09-19T07:47:28;16.00;99.90
5796;DHT22;2924;51.458;7.046;2023-09-19T07:49:55;16.10;99.90
5796;DHT22;2924;51.458;7.046;2023-09-19T07:52:21;16.10;99.90
5796;DHT22;2924;51.458;7.046;2023-09-19T07:54:48;16.10;99.90
5796;DHT22;2924;51.458;7.046;2023-09-19T07:57:15;16.10;99.90
5796;DHT22;2924;51.458;7.046;2023-09-19T07:59:41;16.20;99.90
5796;DHT22;2924;51.458;7.046;2023-09-19T08:02:08;16.30;99.90
5796;DHT22;2924;51.458;7.046;2023-09-19T08:04:35;16.50;99.90
5796;DHT22;2924;51.458;7.046;2023-09-19T08:07:00;16.50;99.90
5796;DHT22;2924;51.458;7.046;2023-09-19T08:09:28;16.50;99.90
5796;DHT22;2924;51.458;7.046;2023-09-19T08:11:59;16.70;99.90
5796;DHT22;2924;51.458;7.046;2023-09-19T08:14:29;16.90;99.90
5796;DHT22;2924;51.458;7.046;2023-09-19T08:16:58;17.00;99.90
5796;DHT22;2924;51.458;7.046;2023-09-19T08:19:24;17.10;99.90
5796;DHT22;2924;51.458;7.046;2023-09-19T08:21:57;17.10;99.90
5796;DHT22;2924;51.458;7.046;2023-09-19T08:24:25;17.00;99.90
5796;DHT22;2924;51.458;7.046;2023-09-19T08:26:52;17.00;99.90
5796;DHT22;2924;51.458;7.046;2023-09-19T08:29:20;17.10;99.90
5796;DHT22;2924;51.458;7.046;2023-09-19T08:31:45;17.30;99.90
5796;DHT22;2924;51.458;7.046;2023-09-19T08:34:13;17.60;99.90
5796;DHT22;2924;51.458;7.046;2023-09-19T08:36:38;17.80;99.90
5796;DHT22;2924;51.458;7.046;2023-09-19T08:39:04;17.80;99.90
5796;DHT22;2924;51.458;7.046;2023-09-19T08:41:30;17.60;99.90
5796;DHT22;2924;51.458;7.046;2023-09-19T08:43:59;17.70;99.90
5796;DHT22;2924;51.458;7.046;2023-09-19T08:46:30;18.00;99.90
5796;DHT22;2924;51.458;7.046;2023-09-19T08:49:13;18.30;99.90
5796;DHT22;2924;51.458;7.046;2023-09-19T08:51:58;18.60;99.90
5796;DHT22;2924;51.458;7.046;2023-09-19T08:54:28;19.10;99.90
5796;DHT22;2924;51.458;7.046;2023-09-19T08:57:00;19.10;99.90
5796;DHT22;2924;51.458;7.046;2023-09-19T08:59:29;18.70;99.90
5796;DHT22;2924;51.458;7.046;2023-09-19T09:01:55;18.90;99.90
5796;DHT22;2924;51.458;7.046;2023-09-19T09:04:22;18.80;99.90
5796;DHT22;2924;51.458;7.046;2023-09-19T09:06:49;18.80;99.90
5796;DHT22;2924;51.458;7.046;2023-09-19T09:09:18;18.80;99.90
5796;DHT22;2924;51.458;7.046;2023-09-19T09:11:45;19.20;99.90
5796;DHT22;2924;51.458;7.046;2023-09-19T09:14:13;19.60;99.90
5796;DHT22;2924;51.458;7.046;2023-09-19T09:16:39;19.90;99.90
5796;DHT22;2924;51.458;7.046;2023-09-19T09:19:05;19.60;99.90
5796;DHT22;2924;51.458;7.046;2023-09-19T09:21:31;19.20;99.90
5796;DHT22;2924;51.458;7.046;2023-09-19T09:24:27;19.30;99.90
5796;DHT22;2924;51.458;7.046;2023-09-19T09:26:55;19.60;99.90
5796;DHT22;2924;51.458;7.046;2023-09-19T09:29:41;19.90;99.90
5796;DHT22;2924;51.458;7.046;2023-09-19T09:34:53;20.20;99.90
5796;DHT22;2924;51.458;7.046;2023-09-19T09:37:20;20.50;99.90
5796;DHT22;2924;51.458;7.046;2023-09-19T09:40:02;20.40;99.90
5796;DHT22;2924;51.458;7.046;2023-09-19T09:42:39;20.10;99.90
5796;DHT22;2924;51.458;7.046;2023-09-19T09:45:16;20.10;99.90
5796;DHT22;2924;51.458;7.046;2023-09-19T09:47:44;20.00;99.90
5796;DHT22;2924;51.458;7.046;2023-09-19T09:52:57;20.30;99.90
5796;DHT22;2924;51.458;7.046;2023-09-19T09:56:04;20.60;99.90
5796;DHT22;2924;51.458;7.046;2023-09-19T09:58:37;20.80;99.90
5796;DHT22;2924;51.458;7.046;2023-09-19T10:01:06;20.90;99.90
5796;DHT22;2924;51.458;7.046;2023-09-19T10:03:37;20.90;99.90
5796;DHT22;2924;51.458;7.046;2023-09-19T10:06:13;20.90;99.90
5796;DHT22;2924;51.458;7.046;2023-09-19T10:09:23;21.00;99.90
5796;DHT22;2924;51.458;7.046;2023-09-19T10:12:03;21.00;99.90
5796;DHT22;2924;51.458;7.046;2023-09-19T10:14:33;20.70;99.90
5796;DHT22;2924;51.458;7.046;2023-09-19T10:17:02;20.60;99.90
5796;DHT22;2924;51.458;7.046;2023-09-19T10:19:36;20.60;99.90
5796;DHT22;2924;51.458;7.046;2023-09-19T10:22:02;20.60;99.90
5796;DHT22;2924;51.458;7.046;2023-09-19T10:24:30;20.40;99.90
5796;DHT22;2924;51.458;7.046;2023-09-19T10:26:57;20.20;99.90
5796;DHT22;2924;51.458;7.046;2023-09-19T10:29:24;20.00;99.90
5796;DHT22;2924;51.458;7.046;2023-09-19T10:31:54;20.30;99.90
5796;DHT22;2924;51.458;7.046;2023-09-19T10:34:25;20.30;99.90
5796;DHT22;2924;51.458;7.046;2023-09-19T10:36:52;20.90;99.90
5796;DHT22;2924;51.458;7.046;2023-09-19T10:39:19;21.20;99.90
5796;DHT22;2924;51.458;7.046;2023-09-19T10:41:51;21.40;99.90
5796;DHT22;2924;51.458;7.046;2023-09-19T10:44:23;21.20;99.90
5796;DHT22;2924;51.458;7.046;2023-09-19T10:46:49;21.30;99.90
5796;DHT22;2924;51.458;7.046;2023-09-19T10:49:15;21.20;99.90
5796;DHT22;2924;51.458;7.046;2023-09-19T10:51:42;21.20;99.90
5796;DHT22;2924;51.458;7.046;2023-09-19T10:54:12;21.70;99.90
5796;DHT22;2924;51.458;7.046;2023-09-19T10:56:43;22.20;99.90
5796;DHT22;2924;51.458;7.046;2023-09-19T10:59:16;22.10;99.90
5796;DHT22;2924;51.458;7.046;2023-09-19T11:01:44;21.90;99.90
5796;DHT22;2924;51.458;7.046;2023-09-19T11:04:30;21.60;99.90
5796;DHT22;2924;51.458;7.046;2023-09-19T11:07:11;21.40;99.90
5796;DHT22;2924;51.458;7.046;2023-09-19T11:09:48;21.20;99.90
5796;DHT22;2924;51.458;7.046;2023-09-19T11:15:07;21.00;99.90
5796;DHT22;2924;51.458;7.046;2023-09-19T11:17:43;21.30;99.90
5796;DHT22;2924;51.458;7.046;2023-09-19T11:20:19;21.20;99.90
5796;DHT22;2924;51.458;7.046;2023-09-19T11:30:49;21.80;99.90
5796;DHT22;2924;51.458;7.046;2023-09-19T11:33:23;21.80;99.90
5796;DHT22;2924;51.458;7.046;2023-09-19T11:36:15;21.70;99.90
5796;DHT22;2924;51.458;7.046;2023-09-19T11:46:30;21.30;99.90
5796;DHT22;2924;51.458;7.046;2023-09-19T11:49:05;21.20;99.90
5796;DHT22;2924;51.458;7.046;2023-09-19T11:51:40;21.10;99.90
5796;DHT22;2924;51.458;7.046;2023-09-19T11:54:11;20.80;99.90
5796;DHT22;2924;51.458;7.046;2023-09-19T11:56:48;20.60;99.90
5796;DHT22;2924;51.458;7.046;2023-09-19T11:59:22;21.10;99.90
5796;DHT22;2924;51.458;7.046;2023-09-19T12:01:57;21.40;99.90
5796;DHT22;2924;51.458;7.046;2023-09-19T12:04:40;21.80;99.90
5796;DHT22;2924;51.458;7.046;2023-09-19T12:07:10;21.80;99.90
5796;DHT22;2924;51.458;7.046;2023-09-19T12:09:39;21.50;99.90
5796;DHT22;2924;51.458;7.046;2023-09-19T12:12:05;21.60;99.90
5796;DHT22;2924;51.458;7.046;2023-09-19T12:14:31;21.80;99.90
5796;DHT22;2924;51.458;7.046;2023-09-19T12:16:57;21.60;99.90
5796;DHT22;2924;51.458;7.046;2023-09-19T12:19:24;21.40;99.90
5796;DHT22;2924;51.458;7.046;2023-09-19T12:22:00;21.30;99.90
5796;DHT22;2924;51.458;7.046;2023-09-19T12:24:29;21.10;99.90
5796;DHT22;2924;51.458;7.046;2023-09-19T12:27:00;21.20;99.90
5796;DHT22;2924;51.458;7.046;2023-09-19T12:29:27;21.30;99.90
5796;DHT22;2924;51.458;7.046;2023-09-19T12:31:54;21.20;99.90
5796;DHT22;2924;51.458;7.046;2023-09-19T12:34:24;21.20;99.90
5796;DHT22;2924;51.458;7.046;2023-09-19T12:37:07;21.40;99.90
5796;DHT22;2924;51.458;7.046;2023-09-19T12:39:46;21.50;99.90
5796;DHT22;2924;51.458;7.046;2023-09-19T12:42:15;21.50;99.90
5796;DHT22;2924;51.458;7.046;2023-09-19T12:44:49;21.50;99.90
5796;DHT22;2924;51.458;7.046;2023-09-19T12:47:20;21.50;99.90
5796;DHT22;2924;51.458;7.046;2023-09-19T12:50:08;21.30;99.90
5796;DHT22;2924;51.458;7.046;2023-09-19T12:52:52;21.60;99.90
5796;DHT22;2924;51.458;7.046;2023-09-19T12:55:29;21.70;99.90
5796;DHT22;2924;51.458;7.046;2023-09-19T13:00:39;21.70;99.90
5796;DHT22;2924;51.458;7.046;2023-09-19T13:05:59;21.90;99.90
5796;DHT22;2924;51.458;7.046;2023-09-19T13:08:27;21.70;99.90
5796;DHT22;2924;51.458;7.046;2023-09-19T13:11:04;21.50;99.90
5796;DHT22;2924;51.458;7.046;2023-09-19T13:13:36;21.60;99.90
5796;DHT22;2924;51.458;7.046;2023-09-19T13:16:03;21.30;99.90
5796;DHT22;2924;51.458;7.046;2023-09-19T13:18:42;21.40;99.90
5796;DHT22;2924;51.458;7.046;2023-09-19T13:21:09;21.40;99.90
5796;DHT22;2924;51.458;7.046;2023-09-19T13:23:43;21.10;99.90
5796;DHT22;2924;51.458;7.046;2023-09-19T13:26:10;21.00;99.90
5796;DHT22;2924;51.458;7.046;2023-09-19T13:28:37;20.70;99.90
5796;DHT22;2924;51.458;7.046;2023-09-19T13:31:03;20.70;99.90
5796;DHT22;2924;51.458;7.046;2023-09-19T13:33:29;20.70;99.90
5796;DHT22;2924;51.458;7.046;2023-09-19T13:35:56;20.80;99.90
5796;DHT22;2924;51.458;7.046;2023-09-19T13:38:22;20.80;99.90
5796;DHT22;2924;51.458;7.046;2023-09-19T13:40:48;20.90;99.90
5796;DHT22;2924;51.458;7.046;2023-09-19T13:43:13;21.10;99.90
5796;DHT22;2924;51.458;7.046;2023-09-19T13:45:40;21.00;99.90
5796;DHT22;2924;51.458;7.046;2023-09-19T13:48:09;20.80;99.90
5796;DHT22;2924;51.458;7.046;2023-09-19T13:50:37;20.80;99.90
5796;DHT22;2924;51.458;7.046;2023-09-19T13:53:09;20.80;99.90
5796;DHT22;2924;51.458;7.046;2023-09-19T13:55:35;20.90;99.90
5796;DHT22;2924;51.458;7.046;2023-09-19T13:58:03;21.00;99.90
5796;DHT22;2924;51.458;7.046;2023-09-19T14:00:32;21.10;99.90
5796;DHT22;2924;51.458;7.046;2023-09-19T14:03:00;21.10;99.90
5796;DHT22;2924;51.458;7.046;2023-09-19T14:05:26;20.90;99.90
5796;DHT22;2924;51.458;7.046;2023-09-19T14:07:53;20.60;99.90
5796;DHT22;2924;51.458;7.046;2023-09-19T14:10:21;20.50;99.90
5796;DHT22;2924;51.458;7.046;2023-09-19T14:12:47;20.30;99.90
5796;DHT22;2924;51.458;7.046;2023-09-19T14:15:13;20.20;99.90
5796;DHT22;2924;51.458;7.046;2023-09-19T14:17:40;20.20;99.90
5796;DHT22;2924;51.458;7.046;2023-09-19T14:20:08;20.20;99.90
5796;DHT22;2924;51.458;7.046;2023-09-19T14:22:36;20.10;99.90
5796;DHT22;2924;51.458;7.046;2023-09-19T14:25:02;20.00;99.90
5796;DHT22;2924;51.458;7.046;2023-09-19T14:27:29;20.00;99.90
5796;DHT22;2924;51.458;7.046;2023-09-19T14:29:55;20.00;99.90
5796;DHT22;2924;51.458;7.046;2023-09-19T14:32:22;20.00;99.90
5796;DHT22;2924;51.458;7.046;2023-09-19T14:34:48;20.00;99.90
5796;DHT22;2924;51.458;7.046;2023-09-19T14:37:13;19.80;99.90
5796;DHT22;2924;51.458;7.046;2023-09-19T14:39:40;19.80;99.90
5796;DHT22;2924;51.458;7.046;2023-09-19T14:42:06;19.80;99.90
5796;DHT22;2924;51.458;7.046;2023-09-19T14:44:32;19.70;99.90
5796;DHT22;2924;51.458;7.046;2023-09-19T14:46:57;19.60;99.90
5796;DHT22;2924;51.458;7.046;2023-09-19T14:49:24;19.80;99.90
5796;DHT22;2924;51.458;7.046;2023-09-19T14:51:50;19.80;99.90
5796;DHT22;2924;51.458;7.046;2023-09-19T14:54:17;19.80;99.90
5796;DHT22;2924;51.458;7.046;2023-09-19T14:56:44;19.70;99.90
5796;DHT22;2924;51.458;7.046;2023-09-19T14:59:10;19.70;99.90
5796;DHT22;2924;51.458;7.046;2023-09-19T15:01:41;19.50;99.90
5796;DHT22;2924;51.458;7.046;2023-09-19T15:04:07;19.50;99.90
5796;DHT22;2924;51.458;7.046;2023-09-19T15:06:34;19.40;99.90
5796;DHT22;2924;51.458;7.046;2023-09-19T15:08:59;19.40;99.90
5796;DHT22;2924;51.458;7.046;2023-09-19T15:11:25;19.40;99.90
5796;DHT22;2924;51.458;7.046;2023-09-19T15:13:52;19.30;99.90
5796;DHT22;2924;51.458;7.046;2023-09-19T15:16:19;19.20;99.90
5796;DHT22;2924;51.458;7.046;2023-09-19T15:18:45;19.20;99.90
5796;DHT22;2924;51.458;7.046;2023-09-19T15:21:13;19.10;99.90
5796;DHT22;2924;51.458;7.046;2023-09-19T15:23:41;19.10;99.90
5796;DHT22;2924;51.458;7.046;2023-09-19T15:26:08;19.10;99.90
5796;DHT22;2924;51.458;7.046;2023-09-19T15:28:34;19.00;99.90
5796;DHT22;2924;51.458;7.046;2023-09-19T15:31:01;19.00;99.90
5796;DHT22;2924;51.458;7.046;2023-09-19T15:33:26;19.00;99.90
5796;DHT22;2924;51.458;7.046;2023-09-19T15:36:03;19.00;99.90
5796;DHT22;2924;51.458;7.046;2023-09-19T15:38:30;19.10;99.90
5796;DHT22;2924;51.458;7.046;2023-09-19T15:40:57;19.10;99.90
5796;DHT22;2924;51.458;7.046;2023-09-19T15:43:23;19.20;99.90
5796;DHT22;2924;51.458;7.046;2023-09-19T15:45:49;19.30;99.90
5796;DHT22;2924;51.458;7.046;2023-09-19T15:48:15;19.40;99.90
5796;DHT22;2924;51.458;7.046;2023-09-19T15:50:41;19.50;99.90
5796;DHT22;2924;51.458;7.046;2023-09-19T15:53:07;19.50;99.90
5796;DHT22;2924;51.458;7.046;2023-09-19T15:55:38;19.50;99.90
5796;DHT22;2924;51.458;7.046;2023-09-19T15:58:08;19.40;99.90
5796;DHT22;2924;51.458;7.046;2023-09-19T16:00:34;19.40;99.90
5796;DHT22;2924;51.458;7.046;2023-09-19T16:03:04;19.40;99.90
5796;DHT22;2924;51.458;7.046;2023-09-19T16:05:37;19.30;99.90
5796;DHT22;2924;51.458;7.046;2023-09-19T16:08:04;19.20;99.90
5796;DHT22;2924;51.458;7.046;2023-09-19T16:10:34;19.10;99.90
5796;DHT22;2924;51.458;7.046;2023-09-19T16:13:00;18.90;99.90
5796;DHT22;2924;51.458;7.046;2023-09-19T16:15:26;18.80;99.90
5796;DHT22;2924;51.458;7.046;2023-09-19T16:17:51;18.70;99.90
5796;DHT22;2924;51.458;7.046;2023-09-19T16:20:17;18.70;99.90
5796;DHT22;2924;51.458;7.046;2023-09-19T16:22:45;18.70;99.90
5796;DHT22;2924;51.458;7.046;2023-09-19T16:25:11;18.70;99.90
5796;DHT22;2924;51.458;7.046;2023-09-19T16:27:37;18.60;99.90
5796;DHT22;2924;51.458;7.046;2023-09-19T16:30:03;18.60;99.90
5796;DHT22;2924;51.458;7.046;2023-09-19T16:32:30;18.60;99.90
5796;DHT22;2924;51.458;7.046;2023-09-19T16:34:56;18.60;99.90
5796;DHT22;2924;51.458;7.046;2023-09-19T16:37:21;18.60;99.90
5796;DHT22;2924;51.458;7.046;2023-09-19T16:39:48;18.60;99.90
5796;DHT22;2924;51.458;7.046;2023-09-19T16:42:14;18.60;99.90
5796;DHT22;2924;51.458;7.046;2023-09-19T16:44:41;18.60;99.90
5796;DHT22;2924;51.458;7.046;2023-09-19T16:47:06;18.60;99.90
5796;DHT22;2924;51.458;7.046;2023-09-19T16:49:32;18.60;99.90
5796;DHT22;2924;51.458;7.046;2023-09-19T16:51:57;18.50;99.90
5796;DHT22;2924;51.458;7.046;2023-09-19T16:54:23;18.50;99.90